Ergebnisliste vom: 19.03.2017 - Lauf um die Röderaue2017 - 6 km

weitere Ergebnisse >>

Platz Pl.m Pl.w Stnr. Name,Vorname Verein GJ AK Akm AKw Endzeit Rückstand
1 1   159 Brandt, Luca SV Chemie Nünchritz 1 Männer 1   0:24:00 0:00:00
2 2   103 Wernicke, Richard Lauftreff OS Weinböhla 1 Männer 2   0:24:02 0:00:02
3   1 132 Golbs, Marlene LG TuS Weinböhla 2 wU16   1 0:25:06 0:01:06
4 3   156 Witt, Florian SV Chemie Nünchritz 3 mU16 1   0:26:50 0:02:50
5   2 193 Schönbrunn, Sandra SV Eintracht Ortrand   wU18   1 0:26:55 0:02:55
6 4   206 Schmidt, Pino FV Zabeltitz   Männer 3   0:26:59 0:02:59
7 5   140 Kümmel, Paul SV Motor Großenhain 2 mU16 2   0:27:03 0:03:03
8   3 158 Prasse, Emily SV Chemie Nünchritz 2 wU16   2 0:27:14 0:03:14
9 6   106 Winter, Jürgen LG TuS Weinböhla 48 M65 1   0:27:17 0:03:17
10   4 131 Zange, Andrea Meißen 62 W55   1 0:27:24 0:03:24
11 7   102 Löwe, Florian Lauftreff OS Weinböhla   Männer 4   0:27:47 0:03:47
12 8   117 Richter, Rene Dresden 65 Männer 5   0:27:56 0:03:56
13 9   188 Hoh, Andreas   79 Männer 6   0:27:59 0:03:59
14 10   208 Herz, Mirko   74 Männer 7   0:28:31 0:04:31
15   5 203 Mahnke, Sophie FV Zabeltitz 3 wU16   3 0:28:36 0:04:36
16 11   138 Thiel, Sebastian Großenhain 86 Männer 8   0:28:38 0:04:38
17 12   155 Schwarzer, Harald Katzengebirgsläufer 61 Männer 9   0:28:40 0:04:40
18 13   209 Herz, Imanuel   1 Männer 10   0:28:42 0:04:42
19 14   179 Mizera, Bernd Team Endurance Radebeul 52 M65 2   0:28:54 0:04:54
20 15   133 Heinicke, Wallfried Oschatz/ Thalheim 49 M65 3   0:29:31 0:05:31
20 15   215 Hußler, Wilhelm Judo Sportclub Großenhain 98 Männer 11   0:29:31 0:05:31
22 17   122 Golbs, Michael Tauchclub Abyss Meissen 70 Männer 12   0:29:52 0:05:52
23 18   181 Schubert, Lothar WSV Riesa 53 Männer 13   0:30:17 0:06:17
24   6 123 Pollmächer, Heidrun SC Riesa 60 W55   2 0:30:30 0:06:30
25   7 176 Wege, Rita TuS Coswig 1920 52 W65   1 0:30:48 0:06:48
26 19   108 Senf, Dietmar Großbothen 51 M65 4   0:30:49 0:06:49
27 20   150 Witt, Michael   76 Männer 14   0:31:10 0:07:10
28 21   134 List, Hans-Joachim Ruhland 49 M65 5   0:31:13 0:07:13
29   8 194 Schumacher, Rita SSV Zabeltitz 69 Frauen   1 0:31:28 0:07:28
30 22   120 Schmidt, Hans-Georg TSV Dresden 38 M75 1   0:31:37 0:07:37
31 23   110 Röhr, Egbert LSV Pirna 49 M65 6   0:31:42 0:07:42
32 24   130 Frenzel, Rene TuS Coswig 1920 72 Männer 15   0:31:46 0:07:46
33   9 148 Rühle, Linda Lichtensee 97 Frauen   2 0:32:09 0:08:09
34 25   152 Horn, Heiko   60 Männer 16   0:32:29 0:08:29
35   10 205 Hilse, Yvette Peritz 67 Frauen   3 0:32:36 0:08:36
36   11 199 Hempel, Maika   74 Frauen   4 0:32:59 0:08:59
37 26   116 Schütze, Wolfgang Skiklub Niedersedlitz 42 M75 2   0:33:08 0:09:08
38   12 177 Mißbach, Marita Meißen 60 W55   3 0:33:12 0:09:12
39 27   105 Huke, Karl-Heinz ESV Lok Bad Schandau 45 M70 1   0:33:21 0:09:21
40 28   111 Lehmkuhle, Hans-Jürgen SV Motor Großenhain 51 M65 7   0:33:33 0:09:33
41 29   190 Nestler, Peter Großenhain 49 M65 8   0:33:36 0:09:36
42 30   153 Oeser, Konrad Friedewald 48 M65 9   0:33:38 0:09:38
43 31   127 Oettmeier, Joachim SG Canitz 44 M70 2   0:33:46 0:09:46
43 31   139 Miehe, Steffen SSV Zabeltitz 84 Männer 17   0:33:46 0:09:46
45 33   168 Meier, Friedhard Niederau 53 Männer 18   0:34:00 0:10:00
46 34   157 Hähnel, Marvin SV Chemie Nünchritz 2 mU16 3   0:34:42 0:10:42
47   13 196 Feder, Anja VLH 81 Frauen   5 0:35:52 0:11:52
48   14 124 Kneschka, Uta SC Riesa 62 W55   4 0:36:00 0:12:00
49   15 144 Kuschmierz, Angela FV Zabeltitz 69 Frauen   6 0:36:01 0:12:01
50   16 202 Mahnke, Anka Zabeltitz 73 Frauen   7 0:36:05 0:12:05
51   17 214 Hußler, Yvette Team Seitenstecher 69 Frauen   8 0:36:54 0:12:54
52   18 101 Kreußler, Nicole Running Team Herzberg 81 Frauen   9 0:37:02 0:13:02
53 35   182 Hannecke, Klaus Weinböhla 41 M75 3   0:37:05 0:13:05
54   19 109 Möbius-Röhr, Veronika LSV Pirna 57 W60   1 0:37:32 0:13:32
55   20 183 Haase, Diana Seitenstecher 77 Frauen   10 0:37:41 0:13:41
56   21 180 Thieme, Annett Ebersbach 77 Frauen   11 0:37:50 0:13:50
57   22 149 Wittek, Andrea Dresden 65 Frauen   12 0:38:09 0:14:09
58   23 170 Lindner, Elvira SV Elbland Coswig Meißen 52 W65   2 0:38:22 0:14:22
59   24 147 Doege, Angela Renntiere Miltitz 57 W60   2 0:38:59 0:14:59
60 36   186 Schliwa, Bernd Tempus Webdesign 63 Männer 19   0:39:22 0:15:22
61   25 154 Schwarzer, Manuela Katzengebirgsläufer 61 W55   5 0:39:28 0:15:28
62   26 104 Kaiser, Viola ESV Lok Bad Schandau 59 W55   6 0:40:29 0:16:29
63 37   113 Malsch, Bernhard Meißen 37 M80+ 1   0:40:31 0:16:31
64   27 121 Harig, Birgit Löthain 72 Frauen   13 0:41:22 0:17:22
65   28 192 Czayka, Korinna   72 Frauen   14 0:41:36 0:17:36
66 38   189 Schildt, Jürgen TuS Coswig 1920 37 M80+ 2   0:42:05 0:18:05
67 39   112 Kühn, Gerald SC Riesa 44 M70 3   0:42:10 0:18:10
68   29 184 Dubielczyk, Manja LG Seitenstecher 77 Frauen   15 0:42:16 0:18:16
69   30 178 Feder, Ramona Meissen 61 W55   7 0:42:34 0:18:34
70 40   187 Goedderz, Klaus Riesa 56 Männer 20   0:43:02 0:19:02
71 41   118 Heinrich, Dietmar SV Elbland Coswig-Meißen 47 M70 4   0:47:16 0:23:16
72 42   146 Doege, Detlef Ren(n)tiere Miltitz 57 Männer 21   0:47:17 0:23:17
73   31 211 Zeibig, Antje   82 Frauen   16 0:47:53 0:23:53
(c) 1990-2012 Blue Wonder Sport Promotion - Andreas Burow - Zeitnahme & Auswertung - www.Triathlon-Service.de